createdAt,value
2019-05-22T00:01:20.505Z,17.57
2019-05-22T00:03:52.081Z,15.80
2019-05-22T00:06:27.448Z,15.23
2019-05-22T00:08:58.615Z,15.60
2019-05-22T00:11:29.416Z,15.40
2019-05-22T00:13:59.790Z,16.57
2019-05-22T00:16:31.597Z,15.60
2019-05-22T00:19:02.890Z,14.93
2019-05-22T00:21:34.233Z,15.17
2019-05-22T00:24:08.618Z,14.83
2019-05-22T00:26:40.167Z,14.90
2019-05-22T00:29:10.561Z,14.00
2019-05-22T00:31:40.598Z,13.27
2019-05-22T00:34:11.535Z,13.93
2019-05-22T00:36:42.372Z,12.40
2019-05-22T00:39:13.742Z,12.43
2019-05-22T00:41:46.639Z,12.33
2019-05-22T00:44:18.146Z,12.83
2019-05-22T00:46:48.120Z,13.47
2019-05-22T00:49:18.381Z,13.37
2019-05-22T00:52:08.165Z,13.10
2019-05-22T00:54:39.423Z,14.30
2019-05-22T00:57:17.376Z,15.70
2019-05-22T00:59:48.499Z,15.33
2019-05-22T01:02:28.537Z,14.07
2019-05-22T01:04:58.403Z,15.30
2019-05-22T01:07:39.241Z,15.27
2019-05-22T01:10:14.870Z,16.37
2019-05-22T01:12:47.707Z,16.50
2019-05-22T01:15:24.773Z,16.47
2019-05-22T01:17:56.554Z,16.80
2019-05-22T01:20:28.594Z,15.97
2019-05-22T01:23:02.856Z,16.60
2019-05-22T01:25:34.609Z,16.70
2019-05-22T01:28:06.366Z,16.07
2019-05-22T01:30:44.248Z,16.80
2019-05-22T01:33:31.861Z,17.70
2019-05-22T01:36:04.122Z,16.83
2019-05-22T01:38:38.091Z,18.87
2019-05-22T01:41:33.716Z,19.00
2019-05-22T01:44:06.768Z,19.70
2019-05-22T01:46:41.513Z,19.60
2019-05-22T01:49:14.741Z,20.90
2019-05-22T01:51:46.371Z,19.63
2019-05-22T01:54:16.394Z,19.60
2019-05-22T01:56:46.000Z,18.83
2019-05-22T01:59:16.077Z,19.07
2019-05-22T02:01:47.510Z,19.83
2019-05-22T02:04:19.489Z,19.37
2019-05-22T02:06:50.952Z,19.73
2019-05-22T02:09:30.685Z,19.43
2019-05-22T02:12:12.098Z,18.57
2019-05-22T02:14:46.293Z,18.57
2019-05-22T02:17:18.334Z,18.37
2019-05-22T02:19:49.036Z,18.17
2019-05-22T02:22:19.037Z,17.80
2019-05-22T02:24:52.007Z,19.10
2019-05-22T02:27:22.384Z,19.67
2019-05-22T02:29:52.894Z,20.53
2019-05-22T02:32:24.172Z,19.30
2019-05-22T02:34:55.037Z,19.67
2019-05-22T02:37:24.817Z,18.77
2019-05-22T02:39:55.740Z,21.30
2019-05-22T02:42:31.046Z,18.73
2019-05-22T02:45:01.611Z,17.80
2019-05-22T02:47:32.527Z,18.37
2019-05-22T02:50:02.502Z,18.33
2019-05-22T02:52:32.154Z,16.90
2019-05-22T02:55:02.168Z,16.50
2019-05-22T02:57:32.468Z,15.97
2019-05-22T03:00:03.213Z,14.13
2019-05-22T03:02:36.449Z,14.97
2019-05-22T03:05:10.988Z,15.20
2019-05-22T03:07:43.542Z,14.10
2019-05-22T03:10:17.361Z,14.77
2019-05-22T03:12:49.270Z,14.30
2019-05-22T03:15:23.460Z,12.80
2019-05-22T03:18:05.611Z,13.70
2019-05-22T03:20:38.023Z,14.13
2019-05-22T03:23:27.587Z,14.00
2019-05-22T03:25:57.137Z,12.33
2019-05-22T03:28:27.199Z,12.97
2019-05-22T03:30:57.150Z,11.70
2019-05-22T03:33:26.747Z,11.40
2019-05-22T03:36:15.620Z,11.10
2019-05-22T03:38:47.879Z,9.13
2019-05-22T03:41:19.600Z,9.07
2019-05-22T03:43:50.991Z,9.40
2019-05-22T03:46:37.116Z,8.70
2019-05-22T03:49:26.061Z,8.90
2019-05-22T03:51:40.929Z,8.40
2019-05-22T03:54:11.647Z,7.53
2019-05-22T03:56:42.801Z,7.50
2019-05-22T03:59:13.645Z,7.60
2019-05-22T04:01:44.997Z,8.37
2019-05-22T04:04:16.506Z,8.10
2019-05-22T04:06:47.780Z,8.53
2019-05-22T04:09:24.529Z,7.93
2019-05-22T04:11:55.241Z,7.93
2019-05-22T04:14:35.708Z,8.57
2019-05-22T04:17:07.258Z,8.53
2019-05-22T04:19:48.323Z,8.20
2019-05-22T04:22:09.686Z,8.90
2019-05-22T04:24:41.531Z,8.33
2019-05-22T04:27:12.518Z,8.60
2019-05-22T04:29:43.065Z,9.47
2019-05-22T04:32:16.177Z,8.93
2019-05-22T04:34:46.443Z,9.20
2019-05-22T04:37:17.469Z,9.73
2019-05-22T04:39:49.455Z,9.70
2019-05-22T04:42:20.691Z,9.50
2019-05-22T04:45:12.723Z,9.47
2019-05-22T04:47:47.409Z,9.43
2019-05-22T04:50:17.962Z,8.17
2019-05-22T04:52:49.766Z,9.10
2019-05-22T04:55:21.156Z,9.37
2019-05-22T04:57:52.624Z,9.40
2019-05-22T05:00:24.142Z,8.93
2019-05-22T05:02:53.668Z,8.90
2019-05-22T05:05:26.469Z,9.07
2019-05-22T05:07:56.849Z,10.50
2019-05-22T05:10:28.169Z,9.23
2019-05-22T05:12:59.477Z,10.73
2019-05-22T05:15:29.097Z,10.93
2019-05-22T05:17:58.585Z,11.33
2019-05-22T05:20:28.215Z,11.30
2019-05-22T05:22:57.853Z,10.57
2019-05-22T05:25:28.429Z,11.27
2019-05-22T05:27:59.083Z,11.80
2019-05-22T05:30:29.793Z,11.30
2019-05-22T05:33:01.242Z,11.23
2019-05-22T05:35:32.719Z,11.33
2019-05-22T05:38:05.561Z,11.03
2019-05-22T05:40:40.443Z,11.50
2019-05-22T05:43:16.366Z,11.60
2019-05-22T05:45:48.842Z,11.53
2019-05-22T05:48:21.415Z,12.57
2019-05-22T05:51:11.321Z,11.93
2019-05-22T05:53:59.809Z,11.43
2019-05-22T05:56:43.006Z,12.00
2019-05-22T05:59:14.085Z,11.83
2019-05-22T06:01:46.273Z,11.87
2019-05-22T06:04:34.850Z,12.27
2019-05-22T06:07:08.950Z,11.70
2019-05-22T06:09:39.158Z,12.03
2019-05-22T06:12:10.451Z,11.83
2019-05-22T06:14:42.287Z,11.50
2019-05-22T06:17:26.871Z,12.50
2019-05-22T06:20:04.253Z,9.87
2019-05-22T06:22:34.452Z,10.37
2019-05-22T06:25:05.058Z,9.50
2019-05-22T06:27:43.804Z,8.70
2019-05-22T06:30:17.920Z,10.23
2019-05-22T06:33:12.507Z,10.73
2019-05-22T06:35:44.480Z,9.47
2019-05-22T06:38:52.517Z,9.20
2019-05-22T06:41:28.592Z,9.20
2019-05-22T06:44:35.173Z,9.00
2019-05-22T06:47:07.065Z,9.07
2019-05-22T06:49:41.443Z,8.63
2019-05-22T06:52:11.425Z,9.10
2019-05-22T06:54:41.208Z,8.77
2019-05-22T06:57:13.755Z,9.40
2019-05-22T06:59:43.689Z,9.40
2019-05-22T07:02:15.406Z,8.43
2019-05-22T07:04:45.040Z,9.07
2019-05-22T07:07:15.544Z,9.67
2019-05-22T07:09:46.587Z,8.93
2019-05-22T07:12:20.077Z,8.80
2019-05-22T07:15:11.111Z,8.87
2019-05-22T07:17:42.024Z,9.50
2019-05-22T07:20:15.121Z,8.93
2019-05-22T07:22:46.311Z,9.90
2019-05-22T07:25:16.565Z,9.83
2019-05-22T07:27:46.991Z,9.43
2019-05-22T07:30:17.627Z,9.20
2019-05-22T07:32:47.214Z,8.87
2019-05-22T07:35:17.530Z,10.17
2019-05-22T07:37:48.569Z,9.57
2019-05-22T07:40:20.203Z,9.23
2019-05-22T07:42:52.282Z,9.50
2019-05-22T07:45:27.240Z,9.03
2019-05-22T07:47:58.289Z,8.50
2019-05-22T07:50:31.268Z,9.50
2019-05-22T07:53:01.670Z,9.43
2019-05-22T07:55:33.895Z,9.50
2019-05-22T07:58:13.359Z,10.03
2019-05-22T08:00:51.220Z,10.00
2019-05-22T08:03:23.489Z,9.13
2019-05-22T08:05:57.917Z,10.33
2019-05-22T08:08:29.899Z,11.20
2019-05-22T08:10:59.930Z,10.67
2019-05-22T08:13:32.437Z,10.73
2019-05-22T08:16:02.299Z,10.27
2019-05-22T08:18:34.215Z,11.10
2019-05-22T08:21:04.727Z,10.80
2019-05-22T08:23:35.240Z,11.27
2019-05-22T08:26:06.264Z,12.20
2019-05-22T08:28:37.741Z,11.20
2019-05-22T08:31:11.054Z,12.20
2019-05-22T08:33:40.912Z,11.87
2019-05-22T08:36:11.395Z,12.90
2019-05-22T08:38:42.481Z,12.63
2019-05-22T08:41:15.332Z,13.70
2019-05-22T08:44:15.160Z,14.47
2019-05-22T08:46:17.901Z,13.50
2019-05-22T08:48:49.275Z,14.67
2019-05-22T08:51:19.319Z,14.93
2019-05-22T08:53:49.072Z,14.50
2019-05-22T08:56:19.467Z,14.60
2019-05-22T08:58:50.095Z,15.20
2019-05-22T09:01:20.546Z,15.80
2019-05-22T09:03:50.270Z,15.33
2019-05-22T09:06:20.204Z,13.90
2019-05-22T09:08:49.642Z,13.37
2019-05-22T09:11:19.243Z,14.57
2019-05-22T09:13:48.734Z,14.47
2019-05-22T09:16:18.554Z,13.83
2019-05-22T09:18:48.246Z,13.83
2019-05-22T09:21:18.309Z,13.83
2019-05-22T09:23:48.251Z,12.43
2019-05-22T09:26:18.536Z,14.13
2019-05-22T09:28:48.408Z,14.17
2019-05-22T09:31:19.131Z,14.20
2019-05-22T09:33:49.521Z,13.57
2019-05-22T09:36:18.993Z,12.87
2019-05-22T09:38:52.121Z,13.53
2019-05-22T09:41:20.805Z,14.40
2019-05-22T09:43:50.333Z,12.27
2019-05-22T09:46:19.911Z,12.53
2019-05-22T09:48:49.407Z,13.63
2019-05-22T09:51:19.667Z,13.17
2019-05-22T09:53:49.786Z,12.40
2019-05-22T09:56:19.353Z,10.63
2019-05-22T09:58:49.434Z,11.40
2019-05-22T10:01:19.683Z,11.27
2019-05-22T10:03:49.527Z,11.87
2019-05-22T10:06:21.808Z,11.23
2019-05-22T10:08:51.223Z,11.83
2019-05-22T10:11:21.520Z,11.07
2019-05-22T10:13:51.517Z,9.53
2019-05-22T10:16:21.156Z,9.70
2019-05-22T10:18:53.375Z,9.20
2019-05-22T10:21:22.836Z,8.83
2019-05-22T10:23:52.597Z,9.80
2019-05-22T10:26:22.871Z,9.60
2019-05-22T10:28:53.050Z,9.30
2019-05-22T10:31:23.821Z,10.63
2019-05-22T10:33:53.302Z,9.30
2019-05-22T10:36:22.888Z,8.20
2019-05-22T10:38:52.422Z,7.37
2019-05-22T10:41:22.158Z,7.60
2019-05-22T10:43:51.874Z,8.37
2019-05-22T10:46:22.032Z,8.00
2019-05-22T10:48:51.988Z,8.90
2019-05-22T10:51:22.040Z,8.50
2019-05-22T10:53:51.827Z,8.87
2019-05-22T10:56:21.394Z,7.80
2019-05-22T10:58:51.339Z,9.03
2019-05-22T11:01:21.432Z,8.47
2019-05-22T11:03:51.594Z,7.73
2019-05-22T11:06:22.605Z,8.03
2019-05-22T11:08:52.105Z,7.43
2019-05-22T11:11:23.078Z,7.37
2019-05-22T11:14:01.336Z,6.50
2019-05-22T11:16:25.266Z,7.10
2019-05-22T11:18:55.941Z,7.87
2019-05-22T11:21:26.303Z,7.00
2019-05-22T11:23:55.892Z,6.67
2019-05-22T11:26:25.548Z,6.67
2019-05-22T11:28:55.054Z,6.77
2019-05-22T11:31:25.108Z,6.97
2019-05-22T11:33:55.544Z,7.50
2019-05-22T11:36:25.762Z,6.70
2019-05-22T11:38:55.479Z,6.90
2019-05-22T11:41:25.646Z,7.17
2019-05-22T11:43:55.777Z,6.53
2019-05-22T11:46:25.496Z,8.07
2019-05-22T11:48:55.541Z,7.27
2019-05-22T11:51:25.101Z,7.10
2019-05-22T11:54:08.690Z,7.60
2019-05-22T11:56:26.312Z,7.13
2019-05-22T11:58:55.877Z,7.57
2019-05-22T12:01:25.806Z,6.50
2019-05-22T12:03:56.025Z,7.30
2019-05-22T12:06:26.909Z,8.10
2019-05-22T12:08:57.433Z,7.60
2019-05-22T12:11:27.835Z,8.07
2019-05-22T12:13:57.555Z,9.60
2019-05-22T12:16:28.412Z,8.57
2019-05-22T12:18:59.107Z,8.60
2019-05-22T12:21:29.007Z,7.43
2019-05-22T12:23:59.051Z,8.83
2019-05-22T12:26:29.329Z,8.23
2019-05-22T12:28:59.122Z,8.40
2019-05-22T12:31:28.667Z,8.53
2019-05-22T12:33:58.416Z,7.83
2019-05-22T12:36:29.753Z,7.07
2019-05-22T12:39:00.575Z,9.03
2019-05-22T12:41:30.671Z,8.27
2019-05-22T12:44:00.420Z,8.97
2019-05-22T12:46:31.129Z,8.17
2019-05-22T12:49:01.667Z,9.33
2019-05-22T12:51:33.045Z,8.70
2019-05-22T12:54:03.107Z,9.40
2019-05-22T12:56:32.806Z,9.17
2019-05-22T12:59:03.534Z,9.73
2019-05-22T13:01:34.975Z,9.27
2019-05-22T13:04:07.101Z,8.73
2019-05-22T13:06:36.995Z,8.03
2019-05-22T13:09:10.842Z,9.10
2019-05-22T13:11:41.353Z,8.30
2019-05-22T13:14:11.048Z,10.47
2019-05-22T13:16:45.807Z,9.67
2019-05-22T13:19:14.674Z,9.87
2019-05-22T13:21:46.435Z,9.77
2019-05-22T13:24:23.126Z,8.43
2019-05-22T13:26:54.505Z,8.00
2019-05-22T13:29:27.739Z,8.03
2019-05-22T13:31:58.032Z,7.23
2019-05-22T13:34:28.881Z,6.87
2019-05-22T13:36:59.166Z,7.00
2019-05-22T13:39:28.731Z,7.97
2019-05-22T13:41:58.301Z,7.90
2019-05-22T13:44:29.810Z,7.30
2019-05-22T13:46:59.305Z,8.63
2019-05-22T13:49:30.551Z,8.23
2019-05-22T13:52:00.984Z,8.13
2019-05-22T13:54:31.110Z,7.40
2019-05-22T13:57:01.127Z,8.60
2019-05-22T13:59:31.447Z,8.13
2019-05-22T14:02:00.993Z,8.90
2019-05-22T14:04:30.676Z,8.03
2019-05-22T14:07:00.169Z,8.53
2019-05-22T14:09:30.038Z,8.63
2019-05-22T14:11:59.840Z,8.43
2019-05-22T14:14:29.458Z,7.87
2019-05-22T14:16:59.074Z,7.83
2019-05-22T14:19:28.734Z,9.20
2019-05-22T14:21:58.380Z,8.43
2019-05-22T14:24:28.001Z,7.63
2019-05-22T14:26:57.652Z,9.63
2019-05-22T14:29:27.371Z,9.03
2019-05-22T14:31:57.913Z,9.33
2019-05-22T14:34:27.618Z,9.60
2019-05-22T14:36:59.512Z,9.70
2019-05-22T14:39:30.466Z,10.37
2019-05-22T14:42:00.897Z,8.63
2019-05-22T14:44:33.780Z,10.40
2019-05-22T14:47:13.320Z,9.97
2019-05-22T14:49:33.324Z,10.73
2019-05-22T14:52:03.150Z,9.80
2019-05-22T14:54:33.098Z,10.70
2019-05-22T14:57:02.710Z,9.83
2019-05-22T14:59:32.657Z,9.20
2019-05-22T15:02:03.624Z,10.13
2019-05-22T15:04:33.825Z,10.87
2019-05-22T15:07:04.200Z,10.43
2019-05-22T15:09:34.044Z,10.13
2019-05-22T15:12:03.939Z,11.47
2019-05-22T15:14:33.563Z,11.13
2019-05-22T15:17:03.110Z,11.97
2019-05-22T15:19:33.053Z,10.93
2019-05-22T15:22:02.596Z,10.70
2019-05-22T15:24:32.226Z,11.17
2019-05-22T15:27:03.518Z,10.90
2019-05-22T15:29:32.893Z,10.20
2019-05-22T15:32:03.637Z,9.57
2019-05-22T15:34:34.603Z,9.40
2019-05-22T15:37:05.820Z,11.03
2019-05-22T15:39:35.891Z,9.93
2019-05-22T15:42:06.648Z,10.77
2019-05-22T15:44:37.792Z,8.93
2019-05-22T15:47:07.369Z,9.57
2019-05-22T15:49:39.506Z,10.20
2019-05-22T15:52:13.615Z,10.37
2019-05-22T15:54:44.355Z,11.67
2019-05-22T15:57:15.587Z,10.50
2019-05-22T15:59:46.460Z,9.60
2019-05-22T16:02:20.974Z,9.23
2019-05-22T16:04:53.197Z,9.20
2019-05-22T16:07:23.843Z,9.67
2019-05-22T16:09:54.093Z,8.60
2019-05-22T16:12:24.979Z,9.87
2019-05-22T16:14:54.579Z,9.23
2019-05-22T16:17:26.148Z,8.20
2019-05-22T16:19:56.432Z,7.90
2019-05-22T16:22:27.073Z,8.07
2019-05-22T16:24:57.035Z,8.20
2019-05-22T16:27:27.165Z,8.27
2019-05-22T16:29:57.192Z,8.80
2019-05-22T16:32:29.329Z,7.60
2019-05-22T16:34:59.419Z,7.63
2019-05-22T16:37:29.739Z,6.90
2019-05-22T16:39:59.584Z,7.20
2019-05-22T16:42:32.564Z,6.87
2019-05-22T16:45:03.888Z,6.47
2019-05-22T16:47:34.061Z,6.30
2019-05-22T16:50:07.817Z,6.03
2019-05-22T16:52:41.037Z,6.70
2019-05-22T16:55:13.038Z,6.37
2019-05-22T16:57:43.590Z,5.90
2019-05-22T17:00:15.847Z,5.77
2019-05-22T17:02:45.832Z,6.37
2019-05-22T17:05:16.183Z,6.17
2019-05-22T17:07:45.740Z,6.87
2019-05-22T17:10:17.091Z,7.27
2019-05-22T17:12:48.790Z,6.43
2019-05-22T17:15:20.611Z,6.90
2019-05-22T17:17:50.191Z,7.47
2019-05-22T17:20:25.589Z,6.50
2019-05-22T17:22:56.625Z,7.73
2019-05-22T17:25:26.655Z,9.07
2019-05-22T17:27:56.754Z,8.23
2019-05-22T17:30:28.551Z,7.90
2019-05-22T17:32:59.691Z,7.33
2019-05-22T17:35:30.103Z,9.80
2019-05-22T17:38:00.275Z,9.50
2019-05-22T17:40:30.663Z,10.57
2019-05-22T17:43:02.340Z,9.97
2019-05-22T17:45:32.569Z,13.63
2019-05-22T17:48:04.511Z,13.13
2019-05-22T17:50:35.328Z,11.93
2019-05-22T17:53:06.542Z,11.57
2019-05-22T17:55:37.885Z,12.67
2019-05-22T17:58:08.699Z,12.17
2019-05-22T18:00:39.991Z,10.50
2019-05-22T18:03:10.064Z,11.43
2019-05-22T18:05:41.340Z,10.73
2019-05-22T18:08:12.514Z,10.50
2019-05-22T18:10:45.840Z,10.67
2019-05-22T18:13:16.561Z,10.20
2019-05-22T18:15:46.820Z,10.17
2019-05-22T18:18:17.765Z,10.10
2019-05-22T18:20:47.565Z,9.63
2019-05-22T18:23:17.377Z,9.47
2019-05-22T18:25:47.062Z,9.17
2019-05-22T18:28:16.892Z,9.13
2019-05-22T18:30:46.624Z,7.97
2019-05-22T18:33:16.522Z,9.60
2019-05-22T18:35:47.902Z,8.60
2019-05-22T18:38:17.530Z,8.27
2019-05-22T18:40:47.091Z,9.17
2019-05-22T18:43:18.857Z,9.70
2019-05-22T18:45:48.366Z,9.70
2019-05-22T18:48:17.895Z,8.63
2019-05-22T18:50:47.511Z,9.13
2019-05-22T18:53:16.991Z,9.67
2019-05-22T18:55:46.483Z,9.50
2019-05-22T18:58:16.106Z,11.00
2019-05-22T19:00:46.212Z,12.67
2019-05-22T19:03:16.251Z,13.37
2019-05-22T19:05:46.131Z,13.37
2019-05-22T19:08:15.694Z,14.70
2019-05-22T19:10:45.268Z,14.70
2019-05-22T19:13:14.924Z,13.87
2019-05-22T19:15:44.433Z,14.30
2019-05-22T19:18:14.157Z,13.57
2019-05-22T19:20:44.565Z,13.53
2019-05-22T19:23:14.184Z,14.23
2019-05-22T19:25:43.656Z,13.80
2019-05-22T19:28:13.485Z,13.50
2019-05-22T19:30:43.035Z,12.30
2019-05-22T19:33:14.947Z,13.50
2019-05-22T19:35:44.817Z,13.13
2019-05-22T19:38:14.538Z,12.80
2019-05-22T19:40:44.205Z,13.27
2019-05-22T19:43:14.047Z,11.93
2019-05-22T19:45:43.998Z,11.70
2019-05-22T19:48:14.499Z,13.10
2019-05-22T19:50:46.003Z,11.80
2019-05-22T19:53:19.291Z,12.70
2019-05-22T19:55:48.799Z,12.00
2019-05-22T19:58:22.086Z,12.10
2019-05-22T20:00:50.634Z,11.03
2019-05-22T20:03:21.210Z,11.67
2019-05-22T20:05:51.045Z,11.23
2019-05-22T20:08:20.933Z,12.03
2019-05-22T20:10:51.710Z,11.37
2019-05-22T20:13:23.786Z,11.93
2019-05-22T20:15:55.361Z,12.13
2019-05-22T20:18:25.254Z,11.63
2019-05-22T20:20:56.552Z,11.13
2019-05-22T20:23:35.577Z,11.73
2019-05-22T20:25:57.587Z,10.87
2019-05-22T20:28:27.963Z,11.33
2019-05-22T20:30:57.726Z,11.40
2019-05-22T20:33:27.340Z,10.40
2019-05-22T20:35:57.393Z,11.60
2019-05-22T20:38:27.704Z,12.20
2019-05-22T20:40:58.328Z,11.90
2019-05-22T20:43:29.156Z,11.40
2019-05-22T20:45:59.535Z,11.40
2019-05-22T20:48:30.143Z,10.97
2019-05-22T20:51:01.361Z,10.63
2019-05-22T20:53:52.301Z,11.27
2019-05-22T20:56:08.712Z,11.80
2019-05-22T20:58:40.022Z,12.37
2019-05-22T21:01:11.303Z,11.83
2019-05-22T21:03:41.959Z,11.80
2019-05-22T21:06:15.518Z,12.20
2019-05-22T21:08:48.095Z,11.43
2019-05-22T21:11:21.441Z,10.83
2019-05-22T21:13:51.097Z,10.90
2019-05-22T21:16:22.022Z,10.90
2019-05-22T21:18:53.670Z,10.80
2019-05-22T21:21:24.957Z,11.60
2019-05-22T21:24:09.294Z,9.83
2019-05-22T21:26:27.545Z,10.90
2019-05-22T21:28:57.697Z,11.37
2019-05-22T21:31:27.917Z,10.27
2019-05-22T21:33:57.751Z,11.10
2019-05-22T21:36:30.013Z,10.87
2019-05-22T21:39:00.326Z,11.23
2019-05-22T21:41:30.145Z,11.17
2019-05-22T21:44:02.108Z,10.70
2019-05-22T21:46:32.095Z,10.07
2019-05-22T21:49:01.672Z,9.57
2019-05-22T21:51:31.622Z,10.23
2019-05-22T21:54:02.060Z,11.53
2019-05-22T21:56:31.702Z,10.83
2019-05-22T21:59:01.347Z,11.43
2019-05-22T22:01:32.999Z,10.20
2019-05-22T22:04:04.672Z,10.77
2019-05-22T22:06:34.703Z,12.50
2019-05-22T22:09:07.724Z,11.03
2019-05-22T22:11:37.962Z,11.13
2019-05-22T22:14:07.995Z,11.73
2019-05-22T22:16:39.510Z,11.40
2019-05-22T22:19:11.365Z,11.07
2019-05-22T22:21:40.875Z,10.73
2019-05-22T22:24:11.876Z,11.50
2019-05-22T22:26:42.055Z,10.33
2019-05-22T22:29:12.314Z,9.07
2019-05-22T22:31:42.755Z,10.30
2019-05-22T22:34:19.676Z,9.77
2019-05-22T22:36:50.422Z,9.40
2019-05-22T22:39:21.711Z,10.50
2019-05-22T22:41:52.258Z,9.13
2019-05-22T22:44:23.245Z,9.83
2019-05-22T22:46:56.187Z,11.50
2019-05-22T22:49:28.132Z,11.40
2019-05-22T22:51:59.476Z,10.73
2019-05-22T22:54:30.397Z,9.47
2019-05-22T22:57:00.343Z,10.67
2019-05-22T22:59:30.615Z,10.30
2019-05-22T23:02:01.955Z,9.73
2019-05-22T23:04:32.046Z,10.33
2019-05-22T23:07:05.889Z,9.17
2019-05-22T23:09:38.914Z,8.97
2019-05-22T23:12:09.905Z,9.80
2019-05-22T23:14:44.757Z,10.63
2019-05-22T23:17:14.341Z,10.23
2019-05-22T23:19:43.281Z,11.17
2019-05-22T23:22:12.779Z,11.17
2019-05-22T23:24:43.563Z,11.27
2019-05-22T23:27:13.605Z,11.00
2019-05-22T23:29:45.392Z,11.23
2019-05-22T23:32:15.662Z,10.50
2019-05-22T23:34:45.841Z,10.40
2019-05-22T23:37:17.696Z,9.73
2019-05-22T23:39:47.746Z,9.63
2019-05-22T23:45:20.637Z,12.00
2019-05-22T23:48:11.411Z,11.00
2019-05-22T23:50:41.876Z,9.67
2019-05-22T23:53:13.576Z,10.90
2019-05-22T23:55:43.946Z,11.83
2019-05-22T23:58:14.307Z,10.93
